Time;durP1;ratioP1;P1;durP2;ratioP2;P2;SDS_P1;SDS_P2;PMS_P1;PMS_P2;Temp;Humidity;BMP_temperature;BMP_pressure;BME280_temperature;BME280_humidity;BME280_pressure;Samples;Min_cycle;Max_cycle;Signal;HPM_P1;HPM_P2
2022/03/16 00:01:27;;;;;;;72.60;41.40;;;;;;;5.30;65.73;100858.36;130233;1268;99132;-75
2022/03/16 00:04:33;;;;;;;81.30;45.40;;;;;;;5.28;65.81;100851.45;130249;1268;98013;-76
2022/03/16 00:07:38;;;;;;;82.70;47.00;;;;;;;5.24;65.89;100851.77;130258;1269;98008;-77
2022/03/16 00:10:43;;;;;;;83.30;47.30;;;;;;;5.20;65.85;100852.15;130234;1268;99190;-77
2022/03/16 00:13:49;;;;;;;84.70;45.40;;;;;;;5.18;65.91;100848.09;130246;1267;99127;-77
2022/03/16 00:16:54;;;;;;;77.20;44.80;;;;;;;5.17;65.76;100847.80;130281;1268;99080;-76
2022/03/16 00:20:00;;;;;;;80.30;42.80;;;;;;;5.16;65.88;100841.69;130210;1267;97978;-78
2022/03/16 00:23:05;;;;;;;81.80;44.00;;;;;;;5.13;65.80;100836.05;130230;1268;98261;-75
2022/03/16 00:26:11;;;;;;;80.20;43.50;;;;;;;5.14;65.94;100831.98;130236;1268;99066;-75
2022/03/16 00:29:16;;;;;;;80.90;46.50;;;;;;;5.17;66.03;100831.25;130229;1268;98727;-77
2022/03/16 00:32:21;;;;;;;82.50;46.00;;;;;;;5.18;66.29;100824.77;130220;1268;98605;-77
2022/03/16 00:35:27;;;;;;;89.30;47.00;;;;;;;5.24;66.33;100819.45;130207;1268;122063;-78
2022/03/16 00:38:33;;;;;;;81.50;45.80;;;;;;;5.27;66.20;100820.63;130170;1270;97985;-77
2022/03/16 00:41:38;;;;;;;87.30;47.90;;;;;;;5.29;66.01;100823.53;130208;1269;99145;-75
2022/03/16 00:44:44;;;;;;;82.70;45.50;;;;;;;5.29;65.95;100823.70;130224;1268;98744;-75
2022/03/16 00:47:49;;;;;;;87.90;48.30;;;;;;;5.28;65.95;100819.34;130244;1268;99203;-73
2022/03/16 00:50:55;;;;;;;89.80;48.40;;;;;;;5.26;66.09;100816.49;130226;1268;98111;-73
2022/03/16 00:54:02;;;;;;;85.70;47.30;;;;;;;5.23;66.19;100813.15;130261;1268;97980;-73
2022/03/16 00:57:07;;;;;;;78.80;44.90;;;;;;;5.20;66.19;100806.31;130245;1268;97994;-73
2022/03/16 01:00:14;;;;;;;75.20;44.10;;;;;;;5.18;66.18;100801.52;130258;1268;98800;-73
2022/03/16 01:03:20;;;;;;;78.60;45.80;;;;;;;5.13;66.15;100805.02;130242;1268;99076;-74
2022/03/16 01:06:26;;;;;;;80.80;46.80;;;;;;;5.09;66.13;100803.67;130225;1270;97982;-73
2022/03/16 01:09:31;;;;;;;77.00;43.60;;;;;;;5.06;66.26;100795.78;130233;1270;97955;-75
2022/03/16 01:12:37;;;;;;;71.20;40.20;;;;;;;5.02;66.22;100799.38;130251;1268;99191;-75
2022/03/16 01:15:43;;;;;;;72.60;40.50;;;;;;;4.96;66.10;100798.76;130238;1270;98777;-75
2022/03/16 01:18:48;;;;;;;78.20;41.90;;;;;;;4.93;66.21;100799.52;130254;1268;99385;-75
2022/03/16 01:21:54;;;;;;;73.00;40.00;;;;;;;4.93;66.29;100800.71;130256;1268;98064;-75
2022/03/16 01:24:59;;;;;;;86.40;46.40;;;;;;;4.96;66.37;100798.41;130237;1269;99048;-75
2022/03/16 01:28:05;;;;;;;87.10;47.80;;;;;;;4.97;66.51;100796.07;130239;1268;99073;-77
2022/03/16 01:31:11;;;;;;;82.80;45.50;;;;;;;4.99;66.50;100788.90;130241;1268;99254;-76
2022/03/16 01:34:16;;;;;;;76.50;43.00;;;;;;;5.00;66.27;100789.47;130250;1270;99245;-75
2022/03/16 01:37:22;;;;;;;81.30;45.50;;;;;;;5.00;66.32;100793.04;130249;1268;98039;-74
2022/03/16 01:40:27;;;;;;;88.70;48.50;;;;;;;4.98;66.28;100791.97;130237;1269;97967;-76
2022/03/16 01:43:32;;;;;;;89.60;48.10;;;;;;;4.92;66.48;100793.58;130266;1267;98366;-74
2022/03/16 01:46:39;;;;;;;89.00;48.20;;;;;;;4.86;66.43;100793.58;130276;1268;98043;-74
2022/03/16 01:49:46;;;;;;;85.90;46.40;;;;;;;4.85;66.45;100792.63;130267;1268;99252;-74
2022/03/16 01:52:51;;;;;;;83.50;46.20;;;;;;;4.82;66.37;100795.10;130240;1268;98602;-75
2022/03/16 01:55:57;;;;;;;88.40;47.60;;;;;;;4.78;66.47;100789.94;130283;1268;98009;-77
2022/03/16 01:59:02;;;;;;;79.30;46.40;;;;;;;4.77;66.43;100796.34;130224;1268;99046;-77
2022/03/16 02:02:09;;;;;;;81.00;46.60;;;;;;;4.73;66.48;100792.35;130266;1268;98145;-76
2022/03/16 02:05:14;;;;;;;83.40;46.20;;;;;;;4.67;66.61;100790.10;130303;1268;97991;-74
2022/03/16 02:08:20;;;;;;;81.00;47.10;;;;;;;4.56;66.73;100782.23;130248;1268;97993;-75
2022/03/16 02:11:26;;;;;;;76.80;43.20;;;;;;;4.45;66.93;100773.22;130254;1268;97941;-75
2022/03/16 02:14:32;;;;;;;76.10;42.20;;;;;;;4.45;66.85;100770.63;130209;1270;98860;-75
2022/03/16 02:17:37;;;;;;;64.20;35.70;;;;;;;4.50;67.03;100767.63;130260;1269;99156;-76
2022/03/16 02:20:42;;;;;;;69.60;39.40;;;;;;;4.58;67.11;100771.85;130274;1270;97977;-75
2022/03/16 02:23:48;;;;;;;75.00;41.60;;;;;;;4.67;66.93;100774.96;130262;1268;97979;-72
2022/03/16 02:26:54;;;;;;;70.60;40.90;;;;;;;4.72;66.82;100772.70;130225;1268;97988;-73
2022/03/16 02:29:59;;;;;;;69.10;39.70;;;;;;;4.75;66.71;100773.38;130236;1268;98549;-72
2022/03/16 02:33:05;;;;;;;64.80;37.60;;;;;;;4.76;67.02;100770.84;130200;1268;97987;-73
2022/03/16 02:36:10;;;;;;;55.40;34.40;;;;;;;4.78;67.11;100771.75;130235;1268;98062;-72
2022/03/16 02:39:15;;;;;;;51.40;32.90;;;;;;;4.80;67.62;100776.02;130287;1268;99191;-75
2022/03/16 02:42:21;;;;;;;53.10;33.00;;;;;;;4.81;67.78;100782.50;130286;1268;97987;-75
2022/03/16 02:45:26;;;;;;;54.20;33.70;;;;;;;4.83;67.82;100787.48;130268;1268;99152;-75
2022/03/16 02:48:32;;;;;;;54.00;31.30;;;;;;;4.85;67.97;100789.64;130251;1268;99215;-75
2022/03/16 02:51:37;;;;;;;55.80;33.50;;;;;;;4.84;68.26;100787.95;130277;1268;98273;-76
2022/03/16 02:54:43;;;;;;;55.40;31.70;;;;;;;4.82;68.22;100787.06;130262;1268;99182;-76
2022/03/16 02:57:48;;;;;;;51.30;32.50;;;;;;;4.85;68.05;100788.90;130273;1268;97966;-76
2022/03/16 03:00:53;;;;;;;55.20;34.20;;;;;;;4.91;68.23;100788.85;130275;1268;97975;-76
2022/03/16 03:03:59;;;;;;;59.10;35.20;;;;;;;4.95;68.06;100790.20;130251;1269;99206;-76
2022/03/16 03:07:07;;;;;;;57.90;35.60;;;;;;;4.97;68.49;100788.50;130325;1268;98654;-74
2022/03/16 03:10:13;;;;;;;62.40;37.90;;;;;;;4.99;68.00;100788.17;130297;1268;97985;-75
2022/03/16 03:13:18;;;;;;;66.20;38.80;;;;;;;5.02;67.95;100787.94;130266;1268;99175;-77
2022/03/16 03:16:24;;;;;;;111.70;72.00;;;;;;;5.04;67.88;100785.66;130368;1268;98066;-74
2022/03/16 03:19:29;;;;;;;101.40;65.40;;;;;;;5.05;67.90;100780.13;130351;1268;97951;-76
2022/03/16 03:22:35;;;;;;;93.60;59.30;;;;;;;5.06;68.13;100779.39;130334;1267;99060;-75
2022/03/16 03:25:40;;;;;;;107.80;63.00;;;;;;;5.04;68.09;100774.80;130329;1267;98759;-76
2022/03/16 03:28:46;;;;;;;79.50;48.60;;;;;;;5.08;68.10;100780.16;130409;1267;98745;-76
2022/03/16 03:31:51;;;;;;;69.10;41.70;;;;;;;5.11;68.09;100782.73;130371;1268;99168;-76
2022/03/16 03:34:57;;;;;;;63.10;39.30;;;;;;;5.18;68.05;100788.83;130377;1267;97983;-76
2022/03/16 03:38:02;;;;;;;65.30;39.30;;;;;;;5.25;68.00;100788.38;130357;1268;122495;-76
2022/03/16 03:41:08;;;;;;;59.10;38.40;;;;;;;5.29;67.98;100785.56;130342;1266;99195;-76
2022/03/16 03:44:13;;;;;;;60.30;36.30;;;;;;;5.33;67.87;100782.67;130370;1267;98768;-76
2022/03/16 03:47:18;;;;;;;56.50;35.60;;;;;;;5.35;67.80;100788.72;130307;1268;97961;-75
2022/03/16 03:50:24;;;;;;;61.00;37.50;;;;;;;5.35;67.86;100788.17;130378;1267;97957;-74
2022/03/16 03:53:29;;;;;;;59.90;37.60;;;;;;;5.34;67.78;100790.90;130334;1268;98067;-76
2022/03/16 03:56:35;;;;;;;64.30;39.40;;;;;;;5.32;67.74;100792.95;130390;1268;98583;-79
2022/03/16 03:59:40;;;;;;;57.60;35.90;;;;;;;5.28;67.68;100792.16;130385;1268;98062;-75
2022/03/16 04:02:50;;;;;;;58.60;37.60;;;;;;;5.23;67.76;100794.66;130362;1268;98022;-74
2022/03/16 04:05:55;;;;;;;61.10;38.00;;;;;;;5.19;67.84;100798.11;130377;1268;97967;-74
2022/03/16 04:09:01;;;;;;;60.30;38.40;;;;;;;5.17;67.77;100795.23;130343;1268;97958;-79
2022/03/16 04:12:10;;;;;;;66.60;40.30;;;;;;;5.14;67.73;100791.58;130374;1268;98470;-76
2022/03/16 04:15:15;;;;;;;60.50;35.20;;;;;;;5.07;67.90;100793.09;130385;1268;99207;-75
2022/03/16 04:18:21;;;;;;;58.80;34.50;;;;;;;5.02;67.77;100795.00;130394;1267;98648;-75
2022/03/16 04:21:26;;;;;;;56.40;32.60;;;;;;;5.01;67.84;100794.20;130317;1267;98333;-76
2022/03/16 04:24:32;;;;;;;61.30;38.50;;;;;;;5.03;67.98;100794.42;130310;1268;97997;-76
2022/03/16 04:27:37;;;;;;;60.40;37.50;;;;;;;5.01;68.32;100803.17;130375;1267;98683;-77
2022/03/16 04:30:43;;;;;;;58.20;36.50;;;;;;;4.99;68.29;100803.84;130350;1267;97977;-75
2022/03/16 04:33:48;;;;;;;59.80;36.20;;;;;;;4.99;68.20;100806.89;130382;1268;99086;-75
2022/03/16 04:36:54;;;;;;;63.10;37.70;;;;;;;4.95;68.20;100812.08;130373;1268;97976;-76
2022/03/16 04:39:59;;;;;;;61.60;38.10;;;;;;;4.95;68.17;100812.63;130378;1268;98075;-76
2022/03/16 04:43:05;;;;;;;60.80;37.20;;;;;;;4.93;68.01;100817.48;130443;1266;98081;-76
2022/03/16 04:46:10;;;;;;;61.80;37.80;;;;;;;4.91;68.16;100823.22;130450;1268;98014;-77
2022/03/16 04:49:16;;;;;;;60.80;38.40;;;;;;;4.91;68.24;100825.05;130339;1268;98085;-76
2022/03/16 04:52:21;;;;;;;60.50;35.90;;;;;;;4.90;68.25;100828.79;130378;1268;97947;-76
2022/03/16 04:55:27;;;;;;;61.00;35.20;;;;;;;4.88;68.12;100831.91;130356;1268;97963;-76
2022/03/16 04:58:33;;;;;;;62.80;33.80;;;;;;;4.87;68.27;100833.92;130398;1268;98912;-76
2022/03/16 05:01:39;;;;;;;53.50;31.60;;;;;;;4.88;68.28;100839.16;130395;1267;97949;-77
2022/03/16 05:04:45;;;;;;;56.80;34.50;;;;;;;4.91;68.17;100842.84;130523;1267;98760;-77
2022/03/16 05:07:50;;;;;;;60.70;36.00;;;;;;;4.95;68.33;100847.35;130472;1267;97973;-77
2022/03/16 05:10:55;;;;;;;63.10;36.70;;;;;;;4.98;68.17;100849.23;130512;1268;97999;-77
2022/03/16 05:14:01;;;;;;;63.50;36.60;;;;;;;5.00;68.22;100850.54;130364;1267;98729;-79
2022/03/16 05:17:07;;;;;;;56.40;36.20;;;;;;;5.00;68.13;100853.84;130882;1268;97975;-79
2022/03/16 05:20:15;;;;;;;61.20;37.20;;;;;;;5.01;68.16;100857.31;130408;1268;98043;-78
2022/03/16 05:23:20;;;;;;;60.90;36.40;;;;;;;5.00;68.08;100862.82;130419;1268;97960;-80
2022/03/16 05:26:26;;;;;;;57.90;36.20;;;;;;;5.01;68.25;100865.81;130491;1268;98630;-82
2022/03/16 05:29:31;;;;;;;60.40;36.50;;;;;;;5.00;68.19;100871.85;130582;1267;98038;-78
2022/03/16 05:32:39;;;;;;;58.00;34.80;;;;;;;4.99;67.98;100871.04;130428;1267;99172;-77
2022/03/16 05:35:45;;;;;;;59.10;36.20;;;;;;;4.99;68.09;100870.67;130649;1267;97936;-76
2022/03/16 05:38:50;;;;;;;59.20;33.60;;;;;;;4.98;68.39;100874.07;130387;1267;99169;-79
2022/03/16 05:41:56;;;;;;;60.20;34.10;;;;;;;4.97;68.33;100872.80;130431;1267;99745;-76
2022/03/16 05:45:01;;;;;;;56.20;33.50;;;;;;;4.97;68.56;100878.22;130352;1267;121546;-79
2022/03/16 05:48:08;;;;;;;57.00;34.20;;;;;;;5.00;68.67;100882.77;130353;1267;97991;-76
2022/03/16 05:51:13;;;;;;;57.60;35.70;;;;;;;5.06;68.91;100883.60;130436;1267;99194;-78
2022/03/16 05:54:19;;;;;;;60.80;37.30;;;;;;;5.09;68.91;100890.95;130467;1267;97944;-77
2022/03/16 05:57:25;;;;;;;65.40;38.70;;;;;;;5.11;68.91;100894.73;130334;1267;99146;-79
2022/03/16 06:00:31;;;;;;;66.30;39.50;;;;;;;5.16;68.93;100898.83;130354;1267;99241;-76
2022/03/16 06:03:37;;;;;;;63.70;39.10;;;;;;;5.19;68.93;100905.13;130349;1267;99204;-79
2022/03/16 06:06:43;;;;;;;67.80;40.20;;;;;;;5.19;69.01;100906.78;130406;1267;97998;-80
2022/03/16 06:09:48;;;;;;;69.10;39.80;;;;;;;5.17;69.11;100908.64;130336;1267;99160;-76
2022/03/16 06:13:00;;;;;;;65.10;40.60;;;;;;;5.20;69.05;100915.36;130370;1267;97912;-77
2022/03/16 06:16:06;;;;;;;66.90;37.40;;;;;;;5.23;69.01;100920.44;130326;1267;98722;-77
2022/03/16 06:19:12;;;;;;;63.90;36.20;;;;;;;5.32;69.09;100928.80;130349;1267;100980;-80
2022/03/16 06:22:17;;;;;;;64.20;37.30;;;;;;;5.43;69.26;100926.30;130273;1267;97985;-80
2022/03/16 06:25:24;;;;;;;73.40;40.20;;;;;;;5.52;69.16;100924.30;130330;1267;121269;-77
2022/03/16 06:28:30;;;;;;;67.30;40.60;;;;;;;5.67;69.01;100926.44;130325;1267;98774;-78
2022/03/16 06:31:35;;;;;;;67.10;41.50;;;;;;;5.75;68.99;100930.13;130302;1267;99191;-80
2022/03/16 06:34:41;;;;;;;67.40;40.80;;;;;;;5.79;68.92;100927.17;130412;1267;98056;-78
2022/03/16 06:37:46;;;;;;;66.40;40.70;;;;;;;5.81;69.30;100926.73;130319;1267;98739;-77
2022/03/16 06:40:52;;;;;;;65.60;39.50;;;;;;;5.85;68.99;100931.58;130351;1267;99037;-77
2022/03/16 06:43:57;;;;;;;62.20;39.10;;;;;;;5.92;68.78;100928.27;130289;1266;98067;-79
2022/03/16 06:47:03;;;;;;;65.90;39.60;;;;;;;6.00;69.01;100928.30;130335;1267;99060;-76
2022/03/16 06:50:11;;;;;;;64.30;39.70;;;;;;;6.03;68.79;100932.67;130309;1267;99143;-78
2022/03/16 06:53:16;;;;;;;58.00;35.40;;;;;;;6.13;69.07;100934.98;130368;1267;98068;-78
2022/03/16 06:56:21;;;;;;;56.00;32.90;;;;;;;6.23;69.00;100935.48;130338;1266;99150;-78
2022/03/16 06:59:27;;;;;;;63.10;37.20;;;;;;;6.39;68.85;100931.94;130298;1267;98081;-77
2022/03/16 07:02:32;;;;;;;54.80;35.70;;;;;;;6.53;68.98;100936.16;130334;1266;98723;-78
2022/03/16 07:05:39;;;;;;;57.90;36.60;;;;;;;6.66;68.68;100936.46;130331;1267;98023;-79
2022/03/16 07:08:46;;;;;;;57.00;36.40;;;;;;;6.82;68.22;100935.54;130334;1267;100243;-76
2022/03/16 07:11:52;;;;;;;57.50;37.80;;;;;;;6.92;68.26;100939.92;130345;1267;99169;-79
2022/03/16 07:14:58;;;;;;;57.70;37.30;;;;;;;7.09;68.23;100944.49;130365;1267;98774;-76
2022/03/16 07:18:03;;;;;;;62.80;39.30;;;;;;;7.22;68.33;100949.91;130411;1267;98052;-80
2022/03/16 07:21:09;;;;;;;57.60;38.40;;;;;;;7.36;68.21;100951.48;130367;1267;98722;-76
2022/03/16 07:24:14;;;;;;;53.70;36.90;;;;;;;7.48;67.60;100951.85;130313;1267;99249;-77
2022/03/16 07:27:20;;;;;;;57.00;37.70;;;;;;;7.61;67.64;100953.56;130429;1267;98059;-77
2022/03/16 07:30:25;;;;;;;53.60;35.50;;;;;;;7.75;67.70;100954.38;130547;1268;99144;-78
2022/03/16 07:33:31;;;;;;;57.70;37.80;;;;;;;7.85;67.22;100957.05;130286;1268;99037;-77
2022/03/16 07:36:37;;;;;;;51.70;35.10;;;;;;;7.98;66.91;100963.13;130168;1268;99051;-79
2022/03/16 07:39:43;;;;;;;48.90;34.10;;;;;;;8.07;66.98;100962.59;130315;1268;98723;-78
2022/03/16 07:42:52;;;;;;;52.70;34.50;;;;;;;8.18;66.74;100968.42;130262;1268;98642;-79
2022/03/16 07:45:58;;;;;;;52.60;35.70;;;;;;;8.25;66.49;100969.31;130258;1268;97986;-77
2022/03/16 07:49:03;;;;;;;48.30;34.20;;;;;;;8.30;66.69;100970.69;130245;1268;98051;-78
2022/03/16 07:52:09;;;;;;;53.90;35.90;;;;;;;8.41;66.42;100976.06;130313;1268;99044;-79
2022/03/16 07:55:15;;;;;;;54.80;35.30;;;;;;;8.44;66.05;100980.28;130342;1268;98078;-78
2022/03/16 07:58:21;;;;;;;53.10;36.40;;;;;;;8.48;66.45;100979.09;130330;1268;97979;-79
2022/03/16 08:01:26;;;;;;;53.40;35.60;;;;;;;8.59;66.17;100982.45;130279;1268;98756;-78
2022/03/16 08:04:31;;;;;;;52.20;35.70;;;;;;;8.64;65.59;100982.39;130219;1268;98615;-77
2022/03/16 08:07:37;;;;;;;52.10;36.80;;;;;;;8.71;65.67;100982.77;130285;1268;97979;-79
2022/03/16 08:10:43;;;;;;;55.50;37.40;;;;;;;8.75;65.06;100988.63;130312;1268;97970;-80
2022/03/16 08:13:48;;;;;;;51.60;35.40;;;;;;;8.74;65.17;100987.70;130238;1268;99248;-78
2022/03/16 08:16:54;;;;;;;59.80;37.50;;;;;;;8.76;64.69;100988.88;130443;1268;99143;-78
2022/03/16 08:19:59;;;;;;;57.20;35.90;;;;;;;8.75;64.73;100992.90;130467;1268;99144;-78
2022/03/16 08:23:05;;;;;;;52.50;36.20;;;;;;;8.72;64.75;100986.90;130439;1268;98036;-77
2022/03/16 08:26:11;;;;;;;54.30;37.20;;;;;;;8.71;64.02;100987.94;130336;1268;99153;-77
2022/03/16 08:29:16;;;;;;;55.80;37.20;;;;;;;8.66;64.08;100989.55;130452;1268;98782;-77
2022/03/16 08:32:22;;;;;;;56.90;38.70;;;;;;;8.65;63.81;100993.71;130417;1267;98869;-77
2022/03/16 08:35:27;;;;;;;49.80;34.90;;;;;;;8.63;63.95;100993.16;130521;1267;99240;-77
2022/03/16 08:38:33;;;;;;;54.00;36.60;;;;;;;8.61;63.47;100998.41;130288;1267;98045;-77
2022/03/16 08:41:39;;;;;;;57.00;38.60;;;;;;;8.58;63.76;100999.92;130100;1267;99038;-77
2022/03/16 08:44:46;;;;;;;60.20;38.30;;;;;;;8.54;63.02;101006.05;130147;1267;99159;-77
2022/03/16 08:47:52;;;;;;;56.50;36.70;;;;;;;8.49;63.09;101003.97;130523;1267;97993;-79
2022/03/16 08:50:57;;;;;;;54.90;37.90;;;;;;;8.51;63.31;101006.52;130333;1268;97977;-77
2022/03/16 08:54:03;;;;;;;58.50;39.00;;;;;;;8.56;62.85;101011.25;130344;1268;98072;-78
2022/03/16 08:57:09;;;;;;;58.70;39.50;;;;;;;8.58;62.76;101011.45;130397;1268;97981;-80
2022/03/16 09:00:18;;;;;;;59.30;39.70;;;;;;;8.61;62.29;101016.48;130653;1268;98001;-78
2022/03/16 09:03:24;;;;;;;59.60;39.00;;;;;;;8.68;61.84;101022.41;130454;1268;97998;-80
2022/03/16 09:06:30;;;;;;;58.50;39.90;;;;;;;8.73;62.23;101020.89;130405;1268;98842;-80
2022/03/16 09:09:35;;;;;;;55.70;38.50;;;;;;;8.80;60.45;101025.50;130318;1267;99135;-80
2022/03/16 09:12:41;;;;;;;59.40;38.80;;;;;;;8.88;61.01;101029.80;130408;1268;98771;-79
2022/03/16 09:15:46;;;;;;;58.70;39.40;;;;;;;9.00;61.02;101032.05;130415;1268;98640;-79
2022/03/16 09:18:52;;;;;;;59.20;39.50;;;;;;;9.11;61.16;101034.70;130326;1267;98640;-80
2022/03/16 09:22:00;;;;;;;59.20;39.50;;;;;;;9.26;60.44;101033.71;130366;1268;97973;-79
2022/03/16 09:25:07;;;;;;;55.80;38.50;;;;;;;9.37;59.94;101035.59;130214;1267;99041;-79
2022/03/16 09:28:13;;;;;;;57.50;38.60;;;;;;;9.51;59.62;101034.14;130453;1268;122021;-81
2022/03/16 09:31:20;;;;;;;60.70;39.20;;;;;;;9.64;59.75;101037.65;130630;1268;98014;-79
2022/03/16 09:34:26;;;;;;;57.60;37.60;;;;;;;9.80;59.72;101040.38;130297;1268;98601;-77
2022/03/16 09:37:31;;;;;;;55.20;38.10;;;;;;;9.97;59.15;101046.09;130436;1267;98719;-79
2022/03/16 09:40:37;;;;;;;59.50;39.00;;;;;;;10.04;57.58;101043.02;130345;1267;99145;-78
2022/03/16 09:43:44;;;;;;;58.20;38.50;;;;;;;10.11;58.53;101041.02;130306;1266;99056;-79
2022/03/16 09:46:53;;;;;;;69.80;42.50;;;;;;;10.23;57.54;101047.82;130313;1267;97990;-78
2022/03/16 09:49:59;;;;;;;68.00;43.60;;;;;;;10.33;57.62;101043.96;130351;1267;97998;-79
2022/03/16 09:53:05;;;;;;;125.10;77.80;;;;;;;10.42;57.60;101050.06;130642;1267;97995;-78
2022/03/16 09:56:11;;;;;;;68.90;45.40;;;;;;;10.52;57.10;101055.25;130364;1267;98064;-78
2022/03/16 09:59:19;;;;;;;74.80;45.70;;;;;;;10.62;56.19;101054.60;130371;1267;97970;-79
2022/03/16 10:02:26;;;;;;;65.40;42.50;;;;;;;10.73;57.07;101054.73;130335;1267;98639;-78
2022/03/16 10:05:32;;;;;;;79.50;48.10;;;;;;;10.85;56.06;101051.73;130448;1267;97972;-78
2022/03/16 10:08:38;;;;;;;65.50;42.30;;;;;;;10.94;56.60;101052.52;130394;1267;99149;-78
2022/03/16 10:15:10;;;;;;;60.50;39.20;;;;;;;11.13;56.03;101054.59;130317;1267;99144;-79
2022/03/16 10:18:18;;;;;;;56.80;36.40;;;;;;;11.20;56.44;101056.98;130505;1267;97968;-78
2022/03/16 10:21:30;;;;;;;63.20;40.50;;;;;;;11.26;56.65;101059.50;130509;1267;123299;-78
2022/03/16 10:24:35;;;;;;;60.20;41.60;;;;;;;11.32;56.01;101063.72;130341;1267;98702;-78
2022/03/16 10:27:41;;;;;;;75.50;49.60;;;;;;;11.36;55.92;101064.65;130279;1266;98659;-78
2022/03/16 10:31:06;;;;;;;56.60;38.40;;;;;;;11.44;55.76;101072.67;130329;1267;98571;-79
2022/03/16 10:34:12;;;;;;;61.70;40.20;;;;;;;11.53;55.99;101070.08;130490;1266;123413;-78
2022/03/16 10:37:21;;;;;;;54.50;37.80;;;;;;;11.55;54.59;101077.02;130355;1267;98844;-79
2022/03/16 10:40:27;;;;;;;53.70;36.40;;;;;;;11.53;53.30;101082.69;130384;1267;98053;-79
2022/03/16 10:46:58;;;;;;;50.80;36.90;;;;;;;11.58;53.64;101082.58;130332;1267;98085;-77
2022/03/16 10:50:07;;;;;;;53.90;36.10;;;;;;;11.62;53.98;101087.42;130300;1266;98714;-76
2022/03/16 10:53:16;;;;;;;48.80;35.60;;;;;;;11.64;54.38;101087.36;130340;1267;98608;-77
2022/03/16 10:56:23;;;;;;;59.70;40.00;;;;;;;11.66;53.85;101082.58;130311;1267;99153;-77
2022/03/16 10:59:30;;;;;;;57.80;40.40;;;;;;;11.67;53.47;101084.23;130307;1266;98729;-77
2022/03/16 11:02:37;;;;;;;52.30;35.50;;;;;;;11.68;53.02;101089.31;130600;1267;98001;-76
2022/03/16 11:05:43;;;;;;;51.10;35.20;;;;;;;11.73;53.69;101091.59;130308;1267;97941;-76
2022/03/16 11:08:50;;;;;;;48.30;33.20;;;;;;;11.79;52.61;101089.79;130449;1266;98452;-76
2022/03/16 11:15:20;;;;;;;38.60;28.70;;;;;;;11.89;53.26;101102.61;130330;1267;98024;-75
2022/03/16 11:18:26;;;;;;;49.00;34.40;;;;;;;11.93;53.09;101102.58;130319;1267;97991;-77
2022/03/16 11:21:37;;;;;;;43.80;30.80;;;;;;;11.97;53.30;101101.02;130470;1267;99155;-76
2022/03/16 11:24:47;;;;;;;64.20;43.00;;;;;;;12.04;53.47;101109.41;130342;1267;97989;-76
2022/03/16 11:27:56;;;;;;;45.80;32.90;;;;;;;12.07;52.42;101107.73;130417;1267;98052;-75
2022/03/16 11:31:02;;;;;;;51.30;36.80;;;;;;;12.08;52.26;101110.34;130357;1267;97960;-76
2022/03/16 11:34:10;;;;;;;51.90;35.40;;;;;;;12.08;52.83;101109.44;130349;1267;97988;-76
2022/03/16 11:37:16;;;;;;;46.90;34.20;;;;;;;12.12;52.49;101114.73;130316;1266;98048;-75
2022/03/16 11:40:23;;;;;;;41.60;31.20;;;;;;;12.14;52.12;101107.41;130309;1267;98747;-75
2022/03/16 11:43:29;;;;;;;41.20;29.80;;;;;;;12.19;52.81;101108.80;130383;1267;98745;-72
2022/03/16 11:46:35;;;;;;;47.00;33.00;;;;;;;12.27;52.24;101110.23;130279;1267;99146;-72
2022/03/16 11:49:45;;;;;;;42.80;30.00;;;;;;;12.31;50.78;101109.11;130427;1267;122197;-73
2022/03/16 11:53:05;;;;;;;42.60;30.70;;;;;;;12.31;51.04;101109.44;130327;1267;97996;-72
2022/03/16 11:56:21;;;;;;;50.90;37.60;;;;;;;12.32;50.88;101106.34;129955;1267;450803;-72
2022/03/16 11:59:40;;;;;;;44.10;31.40;;;;;;;12.29;50.05;101110.40;130383;1267;99165;-75
2022/03/16 12:02:59;;;;;;;42.10;28.70;;;;;;;12.25;50.19;101103.09;130469;1267;98026;-70
2022/03/16 12:06:04;;;;;;;39.60;29.40;;;;;;;12.22;49.20;101107.11;130587;1267;98607;-71
2022/03/16 12:09:18;;;;;;;41.40;30.20;;;;;;;12.18;48.94;101105.66;130397;1267;97948;-70
2022/03/16 12:15:53;;;;;;;40.60;29.40;;;;;;;12.28;48.44;101107.79;130370;1267;98072;-71
2022/03/16 12:18:58;;;;;;;51.40;35.20;;;;;;;12.28;48.48;101111.50;130359;1266;99238;-72
2022/03/16 12:22:11;;;;;;;51.00;35.40;;;;;;;12.27;48.87;101107.48;130345;1267;99162;-72
2022/03/16 12:25:39;;;;;;;49.90;34.70;;;;;;;12.30;48.70;101104.41;130317;1267;98307;-74
2022/03/16 12:28:59;;;;;;;62.30;42.60;;;;;;;12.33;49.49;101101.48;130229;1267;99045;-71
2022/03/16 12:32:05;;;;;;;54.90;38.50;;;;;;;12.35;48.26;101103.74;130317;1267;99175;-71
2022/03/16 12:35:12;;;;;;;43.80;30.70;;;;;;;12.37;48.15;101104.75;130268;1268;98682;-71
2022/03/16 12:38:18;;;;;;;40.40;28.60;;;;;;;12.41;48.70;101102.28;130329;1267;97995;-72
2022/03/16 12:44:55;;;;;;;40.10;28.50;;;;;;;12.51;47.89;101100.98;130305;1267;98059;-71
2022/03/16 12:48:08;;;;;;;53.50;38.50;;;;;;;12.53;47.56;101103.29;130462;1267;97964;-71
2022/03/16 12:51:18;;;;;;;47.20;33.10;;;;;;;12.53;46.11;101110.05;130477;1266;122093;-71
2022/03/16 12:54:31;;;;;;;54.70;39.80;;;;;;;12.54;45.65;101106.17;130492;1266;97992;-71
2022/03/16 12:57:36;;;;;;;39.60;29.20;;;;;;;12.52;45.90;101103.55;130310;1267;99275;-71
2022/03/16 13:00:42;;;;;;;36.80;27.20;;;;;;;12.51;45.89;101109.53;130179;1268;97975;-70
2022/03/16 13:03:49;;;;;;;37.30;27.70;;;;;;;12.54;46.76;101104.04;130206;1267;98078;-71
2022/03/16 13:06:57;;;;;;;35.10;26.90;;;;;;;12.57;47.63;101103.41;130516;1267;97991;-73
2022/03/16 13:10:04;;;;;;;42.70;28.80;;;;;;;12.60;47.17;101109.41;130478;1267;98559;-70
2022/03/16 13:13:12;;;;;;;37.90;26.20;;;;;;;12.61;46.58;101110.09;130404;1266;99060;-79
2022/03/16 13:16:35;;;;;;;38.40;28.20;;;;;;;12.61;47.32;101112.50;130426;1267;97967;-74
2022/03/16 13:19:40;;;;;;;;;;;;;;;12.63;47.09;101114.04;130446;1266;97976;-72
2022/03/16 13:22:46;;;;;;;42.80;30.40;;;;;;;12.63;47.07;101119.09;130379;1267;99154;-71
2022/03/16 13:26:05;;;;;;;38.30;28.40;;;;;;;12.61;46.50;101123.75;130376;1266;99047;-71
2022/03/16 13:29:12;;;;;;;40.70;30.30;;;;;;;12.62;47.32;101126.03;130615;1267;99115;-74
2022/03/16 13:32:19;;;;;;;42.40;28.30;;;;;;;12.59;46.55;101122.91;130423;1267;99153;-79
2022/03/16 13:35:28;;;;;;;39.70;28.80;;;;;;;12.57;46.63;101133.23;130519;1267;98057;-71
2022/03/16 13:38:37;;;;;;;42.70;29.60;;;;;;;12.57;46.87;101133.79;130385;1266;98742;-73
2022/03/16 13:42:05;;;;;;;42.00;29.50;;;;;;;12.58;46.31;101138.16;130425;1266;98656;-71
2022/03/16 13:45:20;;;;;;;37.50;28.00;;;;;;;12.57;46.65;101135.39;130478;1266;98675;-71
2022/03/16 13:48:27;;;;;;;37.30;26.60;;;;;;;12.59;47.06;101135.92;130486;1267;99112;-72
2022/03/16 13:51:34;;;;;;;33.80;24.80;;;;;;;12.61;46.61;101139.85;130390;1266;97977;-75
2022/03/16 13:54:41;;;;;;;37.00;27.30;;;;;;;12.61;46.76;101137.91;130461;1267;97967;-73
2022/03/16 13:57:47;;;;;;;35.40;26.30;;;;;;;12.61;46.59;101141.84;130549;1267;98713;-72
2022/03/16 14:00:55;;;;;;;35.60;24.90;;;;;;;12.61;46.42;101148.08;130538;1266;97924;-70
2022/03/16 14:04:08;;;;;;;37.30;26.50;;;;;;;12.60;45.70;101140.15;130444;1267;98000;-71
2022/03/16 14:07:26;;;;;;;39.30;26.70;;;;;;;12.59;46.56;101144.66;130452;1267;98744;-71
2022/03/16 14:10:33;;;;;;;35.60;25.70;;;;;;;12.61;46.70;101144.30;130353;1266;99084;-71
2022/03/16 14:13:42;;;;;;;38.50;25.40;;;;;;;12.61;46.25;101147.37;130445;1267;97992;-72
2022/03/16 14:16:50;;;;;;;35.00;24.60;;;;;;;12.59;46.30;101148.04;130479;1267;98092;-70
2022/03/16 14:19:55;;;;;;;34.40;24.60;;;;;;;12.59;46.71;101148.75;130458;1267;98008;-71
2022/03/16 14:23:02;;;;;;;33.30;23.50;;;;;;;12.58;45.87;101159.55;130378;1267;98078;-70